Time;durP1;ratioP1;P1;durP2;ratioP2;P2;SDS_P1;SDS_P2;PMS_P1;PMS_P2;Temp;Humidity;BMP_temperature;BMP_pressure;BME280_temperature;BME280_humidity;BME280_pressure;Samples;Min_cycle;Max_cycle;Signal;HPM_P1;HPM_P2
2022/06/29 00:02:03;;;;;;;7.15;4.57;;;;;;;;;;5023577;28;20021;-67
2022/06/29 00:04:29;;;;;;;8.55;4.65;;;;;;;;;;5041326;28;20064;-67
2022/06/29 00:06:55;;;;;;;10.32;4.47;;;;;;;;;;5044273;28;20052;-67
2022/06/29 00:09:21;;;;;;;7.00;4.68;;;;;;;;;;5043627;28;20056;-68
2022/06/29 00:11:48;;;;;;;7.22;4.90;;;;;;;;;;5041969;28;20112;-68
2022/06/29 00:14:14;;;;;;;8.15;4.30;;;;;;;;;;5042943;28;20036;-68
2022/06/29 00:16:40;;;;;;;10.13;4.32;;;;;;;;;;5043910;28;20111;-68
2022/06/29 00:19:06;;;;;;;13.07;4.40;;;;;;;;;;5041569;28;20033;-68
2022/06/29 00:21:33;;;;;;;10.80;4.55;;;;;;;;;;5017623;28;20037;-68
2022/06/29 00:23:59;;;;;;;8.80;4.32;;;;;;;;;;5042390;28;20045;-68
2022/06/29 00:26:25;;;;;;;8.68;4.38;;;;;;;;;;5041384;28;20573;-68
2022/06/29 00:28:52;;;;;;;6.05;3.85;;;;;;;;;;5038534;28;20036;-68
2022/06/29 00:31:18;;;;;;;6.20;4.25;;;;;;;;;;5043896;28;20036;-68
2022/06/29 00:33:44;;;;;;;10.95;4.63;;;;;;;;;;5039507;28;20129;-68
2022/06/29 00:36:10;;;;;;;12.18;4.53;;;;;;;;;;5041162;28;20021;-68
2022/06/29 00:38:36;;;;;;;8.77;3.80;;;;;;;;;;5041521;28;20478;-67
2022/06/29 00:41:02;;;;;;;8.32;3.95;;;;;;;;;;5035957;28;20585;-67
2022/06/29 00:43:29;;;;;;;12.60;4.28;;;;;;;;;;5055935;28;20063;-67
2022/06/29 00:45:55;;;;;;;8.95;4.30;;;;;;;;;;5061913;28;20029;-68
2022/06/29 00:48:21;;;;;;;28.83;5.13;;;;;;;;;;5057373;28;20060;-67
2022/06/29 00:50:48;;;;;;;9.65;4.82;;;;;;;;;;5060335;28;20037;-67
2022/06/29 00:53:15;;;;;;;11.60;4.53;;;;;;;;;;5060637;28;20101;-74
2022/06/29 00:55:42;;;;;;;13.98;5.43;;;;;;;;;;5063859;28;20160;-68
2022/06/29 00:58:10;;;;;;;6.32;4.13;;;;;;;;;;5058795;28;20055;-67
2022/06/29 01:00:36;;;;;;;11.75;4.65;;;;;;;;;;5063545;28;20093;-68
2022/06/29 01:03:02;;;;;;;9.52;4.88;;;;;;;;;;5058538;28;20922;-67
2022/06/29 01:05:29;;;;;;;6.72;4.70;;;;;;;;;;5059195;28;20100;-67
2022/06/29 01:07:56;;;;;;;9.60;4.90;;;;;;;;;;5059387;28;20461;-67
2022/06/29 01:10:22;;;;;;;8.48;4.53;;;;;;;;;;5057801;28;20029;-68
2022/06/29 01:12:49;;;;;;;9.25;5.05;;;;;;;;;;5059280;28;20048;-67
2022/06/29 01:15:15;;;;;;;9.63;5.32;;;;;;;;;;5061550;28;20031;-67
2022/06/29 01:17:41;;;;;;;10.18;5.45;;;;;;;;;;5057027;28;20028;-66
2022/06/29 01:20:08;;;;;;;9.00;5.95;;;;;;;;;;5064369;28;20684;-67
2022/06/29 01:22:34;;;;;;;7.63;5.47;;;;;;;;;;5060679;28;20474;-67
2022/06/29 01:25:00;;;;;;;10.02;5.30;;;;;;;;;;5051973;28;20055;-66
2022/06/29 01:27:26;;;;;;;7.32;4.85;;;;;;;;;;5064707;28;20174;-67
2022/06/29 01:29:53;;;;;;;7.28;5.57;;;;;;;;;;5066914;28;20435;-67
2022/06/29 01:32:20;;;;;;;8.80;4.90;;;;;;;;;;5065690;28;20093;-68
2022/06/29 01:34:46;;;;;;;10.32;6.35;;;;;;;;;;5060510;28;20033;-69
2022/06/29 01:37:13;;;;;;;9.50;5.38;;;;;;;;;;5066189;28;20028;-67
2022/06/29 01:39:39;;;;;;;8.50;5.13;;;;;;;;;;5064452;28;20060;-67
2022/06/29 01:42:05;;;;;;;12.88;5.43;;;;;;;;;;5061853;28;20032;-67
2022/06/29 01:44:31;;;;;;;10.18;5.30;;;;;;;;;;5045263;28;20045;-68
2022/06/29 01:46:57;;;;;;;10.93;5.45;;;;;;;;;;5029624;28;20048;-69
2022/06/29 01:49:23;;;;;;;8.82;4.97;;;;;;;;;;5045242;28;20025;-68
2022/06/29 01:51:50;;;;;;;12.75;4.72;;;;;;;;;;5045057;28;20041;-68
2022/06/29 01:54:16;;;;;;;6.15;4.60;;;;;;;;;;5047210;28;20037;-69
2022/06/29 01:56:42;;;;;;;8.82;5.07;;;;;;;;;;5046832;28;20033;-68
2022/06/29 01:59:08;;;;;;;10.48;4.70;;;;;;;;;;5046322;28;20032;-68
2022/06/29 02:01:34;;;;;;;10.35;4.93;;;;;;;;;;5014446;28;20029;-67
2022/06/29 02:04:00;;;;;;;11.90;5.10;;;;;;;;;;5046921;28;20549;-67
2022/06/29 02:06:26;;;;;;;7.32;5.40;;;;;;;;;;5043564;28;20037;-68
2022/06/29 02:08:52;;;;;;;12.15;5.18;;;;;;;;;;5042703;28;20509;-69
2022/06/29 02:11:19;;;;;;;6.68;5.10;;;;;;;;;;5040046;28;20075;-68
2022/06/29 02:13:46;;;;;;;7.15;4.82;;;;;;;;;;5045643;28;20025;-68
2022/06/29 02:16:12;;;;;;;9.07;4.82;;;;;;;;;;5046769;28;20017;-68
2022/06/29 02:18:38;;;;;;;9.98;5.07;;;;;;;;;;5029298;28;20022;-68
2022/06/29 02:21:04;;;;;;;11.63;5.30;;;;;;;;;;5047318;28;20055;-68
2022/06/29 02:23:30;;;;;;;6.25;5.13;;;;;;;;;;5046461;28;20442;-67
2022/06/29 02:25:56;;;;;;;9.32;5.53;;;;;;;;;;5044495;28;20112;-67
2022/06/29 02:28:22;;;;;;;9.85;5.35;;;;;;;;;;5044454;28;20037;-68
2022/06/29 02:36:18;;;;;;;8.35;5.85;;;;;;;;;;5039847;28;20086;-68
2022/06/29 02:38:44;;;;;;;8.45;5.50;;;;;;;;;;5045624;28;20532;-68
2022/06/29 02:41:10;;;;;;;8.05;5.30;;;;;;;;;;5042415;28;20116;-67
2022/06/29 02:43:37;;;;;;;11.70;5.57;;;;;;;;;;5032105;28;20067;-67
2022/06/29 02:46:03;;;;;;;9.02;5.55;;;;;;;;;;5060993;28;20032;-67
2022/06/29 02:48:29;;;;;;;7.43;6.00;;;;;;;;;;5064416;28;20067;-68
2022/06/29 02:50:55;;;;;;;11.80;5.68;;;;;;;;;;5060945;28;20063;-68
2022/06/29 02:53:21;;;;;;;12.57;5.55;;;;;;;;;;5063033;28;20095;-69
2022/06/29 02:55:47;;;;;;;7.25;5.00;;;;;;;;;;5063108;28;20101;-68
2022/06/29 02:58:13;;;;;;;8.93;5.70;;;;;;;;;;5062158;28;20040;-68
2022/06/29 03:00:39;;;;;;;14.02;6.80;;;;;;;;;;5060858;28;20028;-67
2022/06/29 03:03:05;;;;;;;9.02;6.18;;;;;;;;;;5056605;28;20033;-68
2022/06/29 03:05:31;;;;;;;13.13;5.75;;;;;;;;;;5063809;28;20025;-68
2022/06/29 03:07:57;;;;;;;7.93;5.53;;;;;;;;;;5063949;28;20044;-67
2022/06/29 03:10:23;;;;;;;9.25;5.43;;;;;;;;;;5061539;28;20024;-67
2022/06/29 03:12:49;;;;;;;7.57;5.25;;;;;;;;;;5063201;28;20044;-67
2022/06/29 03:15:15;;;;;;;17.10;5.25;;;;;;;;;;5061169;28;20077;-68
2022/06/29 03:17:42;;;;;;;7.97;5.35;;;;;;;;;;5063298;28;20033;-67
2022/06/29 03:20:08;;;;;;;5.82;5.22;;;;;;;;;;5065358;28;20178;-68
2022/06/29 03:22:35;;;;;;;7.80;5.53;;;;;;;;;;5061560;28;20029;-67
2022/06/29 03:25:01;;;;;;;9.25;5.60;;;;;;;;;;5056208;28;20037;-68
2022/06/29 03:27:27;;;;;;;13.60;5.72;;;;;;;;;;5062875;28;20024;-70
2022/06/29 03:29:53;;;;;;;10.75;6.15;;;;;;;;;;5066513;28;20629;-68
2022/06/29 03:32:19;;;;;;;9.85;6.10;;;;;;;;;;5064159;28;20032;-68
2022/06/29 03:34:45;;;;;;;7.38;5.70;;;;;;;;;;5064160;28;20025;-67
2022/06/29 03:37:11;;;;;;;7.50;5.47;;;;;;;;;;5061210;28;20036;-68
2022/06/29 03:39:38;;;;;;;9.07;5.97;;;;;;;;;;5067592;28;20025;-68
2022/06/29 03:42:04;;;;;;;10.68;6.20;;;;;;;;;;5062521;28;20033;-68
2022/06/29 03:44:30;;;;;;;7.88;5.97;;;;;;;;;;5058175;28;20049;-68
2022/06/29 03:46:56;;;;;;;20.45;6.75;;;;;;;;;;5060241;28;20505;-68
2022/06/29 03:49:22;;;;;;;8.82;6.57;;;;;;;;;;5061820;28;20044;-68
2022/06/29 03:51:48;;;;;;;12.98;6.30;;;;;;;;;;5059480;28;20162;-67
2022/06/29 03:54:14;;;;;;;12.75;6.28;;;;;;;;;;5059556;28;20028;-66
2022/06/29 03:56:40;;;;;;;11.18;7.07;;;;;;;;;;5058419;28;20055;-68
2022/06/29 03:59:06;;;;;;;11.00;6.88;;;;;;;;;;5058599;28;20497;-68
2022/06/29 04:01:32;;;;;;;10.45;7.20;;;;;;;;;;5060784;28;20032;-69
2022/06/29 04:03:58;;;;;;;11.40;6.95;;;;;;;;;;5060179;28;20040;-70
2022/06/29 04:06:24;;;;;;;9.23;6.65;;;;;;;;;;5057198;28;20040;-67
2022/06/29 04:08:50;;;;;;;9.48;6.85;;;;;;;;;;5063119;28;20048;-69
2022/06/29 04:11:51;;;;;;;10.50;7.32;;;;;;;;;;5063767;28;20028;-68
2022/06/29 04:14:09;;;;;;;25.80;7.80;;;;;;;;;;5060813;28;20032;-68
2022/06/29 04:16:35;;;;;;;11.82;7.85;;;;;;;;;;5056865;28;20481;-68
2022/06/29 04:19:01;;;;;;;12.30;7.22;;;;;;;;;;5062531;28;20547;-68
2022/06/29 04:21:27;;;;;;;11.38;6.82;;;;;;;;;;5059536;28;20037;-67
2022/06/29 04:23:53;;;;;;;8.55;6.68;;;;;;;;;;5064474;28;20024;-67
2022/06/29 04:26:19;;;;;;;18.13;7.43;;;;;;;;;;5062758;28;20612;-68
2022/06/29 04:28:45;;;;;;;7.63;5.80;;;;;;;;;;5066451;28;20031;-67
2022/06/29 04:31:11;;;;;;;17.98;6.43;;;;;;;;;;5064942;28;20037;-67
2022/06/29 04:33:37;;;;;;;8.38;4.78;;;;;;;;;;5065492;28;20024;-68
2022/06/29 04:36:03;;;;;;;15.98;4.43;;;;;;;;;;5063520;28;20030;-67
2022/06/29 04:38:29;;;;;;;7.95;3.90;;;;;;;;;;5066329;28;20146;-68
2022/06/29 04:40:55;;;;;;;8.23;4.10;;;;;;;;;;5064493;28;20048;-67
2022/06/29 04:43:21;;;;;;;12.02;4.30;;;;;;;;;;5054044;28;20056;-68
2022/06/29 04:48:32;;;;;;;6.32;3.72;;;;;;;;;;5042603;28;20080;-66
2022/06/29 04:50:58;;;;;;;7.38;3.60;;;;;;;;;;5043018;28;20064;-67
2022/06/29 04:53:24;;;;;;;6.55;3.25;;;;;;;;;;5041902;28;20029;-68
2022/06/29 04:55:50;;;;;;;10.45;3.70;;;;;;;;;;5039420;28;20226;-67
2022/06/29 04:58:16;;;;;;;6.45;3.30;;;;;;;;;;5040482;28;20033;-68
2022/06/29 05:00:42;;;;;;;6.25;3.60;;;;;;;;;;5046978;28;20086;-67
2022/06/29 05:03:08;;;;;;;7.97;3.63;;;;;;;;;;5039792;28;20099;-67
2022/06/29 05:05:34;;;;;;;8.25;3.67;;;;;;;;;;5043012;28;20033;-67
2022/06/29 05:08:00;;;;;;;6.28;3.10;;;;;;;;;;5048103;28;20028;-75
2022/06/29 05:10:26;;;;;;;10.20;3.38;;;;;;;;;;5049775;28;20037;-73
2022/06/29 05:12:52;;;;;;;7.22;3.20;;;;;;;;;;5011950;28;20049;-75
2022/06/29 05:15:18;;;;;;;9.25;3.30;;;;;;;;;;5031217;28;20021;-75
2022/06/29 05:17:45;;;;;;;9.30;3.10;;;;;;;;;;5028267;28;20032;-75
2022/06/29 05:20:11;;;;;;;5.75;3.03;;;;;;;;;;5052889;28;20182;-73
2022/06/29 05:22:37;;;;;;;10.48;3.22;;;;;;;;;;5051084;28;20571;-74
2022/06/29 05:25:04;;;;;;;11.00;3.28;;;;;;;;;;5055007;28;20056;-74
2022/06/29 05:27:30;;;;;;;8.90;3.20;;;;;;;;;;5051462;28;20029;-75
2022/06/29 05:29:56;;;;;;;10.02;3.58;;;;;;;;;;5043861;28;20021;-75
2022/06/29 05:32:22;;;;;;;17.17;3.13;;;;;;;;;;5028264;28;20082;-75
2022/06/29 05:34:48;;;;;;;19.67;3.38;;;;;;;;;;5045337;28;20030;-73
2022/06/29 05:37:14;;;;;;;7.30;3.17;;;;;;;;;;5031417;28;20056;-74
2022/06/29 05:39:42;;;;;;;8.30;3.20;;;;;;;;;;5053524;28;20036;-75
2022/06/29 05:42:08;;;;;;;7.30;3.20;;;;;;;;;;5019996;28;20104;-76
2022/06/29 05:44:34;;;;;;;9.20;3.03;;;;;;;;;;5064900;28;20052;-74
2022/06/29 05:47:01;;;;;;;9.35;3.30;;;;;;;;;;5072362;28;20020;-77
2022/06/29 05:49:27;;;;;;;8.23;3.35;;;;;;;;;;5070499;28;20045;-75
2022/06/29 05:51:53;;;;;;;6.13;3.08;;;;;;;;;;5067744;28;20033;-75
2022/06/29 05:54:19;;;;;;;6.75;3.72;;;;;;;;;;5068201;28;20044;-74
2022/06/29 05:56:45;;;;;;;7.47;2.88;;;;;;;;;;5070476;28;20430;-76
2022/06/29 05:59:11;;;;;;;4.90;2.97;;;;;;;;;;5063914;28;20054;-75
2022/06/29 06:01:37;;;;;;;9.00;3.50;;;;;;;;;;5064140;28;20501;-76
2022/06/29 06:04:03;;;;;;;9.13;3.80;;;;;;;;;;5064841;28;20040;-76
2022/06/29 06:06:29;;;;;;;5.53;3.17;;;;;;;;;;5062570;28;20083;-75
2022/06/29 06:08:55;;;;;;;10.70;3.13;;;;;;;;;;5063810;28;20047;-74
2022/06/29 06:11:21;;;;;;;9.40;3.35;;;;;;;;;;5065655;28;20430;-75
2022/06/29 06:13:47;;;;;;;8.63;3.08;;;;;;;;;;5066029;28;20478;-74
2022/06/29 06:16:13;;;;;;;8.57;2.97;;;;;;;;;;5068667;28;20110;-75
2022/06/29 06:18:39;;;;;;;8.57;3.33;;;;;;;;;;5062192;28;20033;-75
2022/06/29 06:21:05;;;;;;;7.72;3.45;;;;;;;;;;5065935;28;20389;-76
2022/06/29 06:23:31;;;;;;;9.80;3.25;;;;;;;;;;5069288;28;20060;-76
2022/06/29 06:25:57;;;;;;;11.55;3.25;;;;;;;;;;5074960;28;20036;-75
2022/06/29 06:28:23;;;;;;;6.03;3.58;;;;;;;;;;5077756;28;20512;-72
2022/06/29 06:30:49;;;;;;;5.80;3.13;;;;;;;;;;5067004;28;20029;-77
2022/06/29 06:33:15;;;;;;;9.63;3.30;;;;;;;;;;5054759;28;20028;-75
2022/06/29 06:35:42;;;;;;;9.35;3.60;;;;;;;;;;5070040;28;20033;-76
2022/06/29 06:38:08;;;;;;;5.85;3.33;;;;;;;;;;5078766;28;20090;-76
2022/06/29 06:43:18;;;;;;;10.07;3.50;;;;;;;;;;5062662;28;20056;-76
2022/06/29 06:45:44;;;;;;;8.55;3.38;;;;;;;;;;5059245;28;20483;-75
2022/06/29 06:48:10;;;;;;;12.63;3.10;;;;;;;;;;5058554;28;20094;-75
2022/06/29 06:50:36;;;;;;;6.07;3.17;;;;;;;;;;5038633;28;20028;-75
2022/06/29 06:53:02;;;;;;;7.65;3.45;;;;;;;;;;5048323;28;20629;-75
2022/06/29 06:55:28;;;;;;;8.55;3.67;;;;;;;;;;5037625;28;20595;-76
2022/06/29 06:57:55;;;;;;;9.90;3.33;;;;;;;;;;5039887;28;20094;-76
2022/06/29 07:00:21;;;;;;;8.65;3.20;;;;;;;;;;5047226;28;20608;-74
2022/06/29 07:02:47;;;;;;;5.45;3.15;;;;;;;;;;5023135;28;20029;-77
2022/06/29 07:05:13;;;;;;;8.98;3.38;;;;;;;;;;5046055;28;20156;-76
2022/06/29 07:07:39;;;;;;;15.27;4.22;;;;;;;;;;5011265;28;20048;-74
2022/06/29 07:10:05;;;;;;;7.68;3.28;;;;;;;;;;5024417;28;20052;-76
2022/06/29 07:12:32;;;;;;;6.28;2.80;;;;;;;;;;5046071;28;20147;-76
2022/06/29 07:14:58;;;;;;;5.35;3.33;;;;;;;;;;5044364;28;20084;-75
2022/06/29 07:17:24;;;;;;;7.22;3.08;;;;;;;;;;5046795;28;20044;-75
2022/06/29 07:19:50;;;;;;;6.50;3.28;;;;;;;;;;5044613;28;20021;-76
2022/06/29 07:22:16;;;;;;;7.85;3.00;;;;;;;;;;5038701;28;20052;-76
2022/06/29 07:24:42;;;;;;;11.30;2.90;;;;;;;;;;5046931;28;20033;-75
2022/06/29 07:27:08;;;;;;;7.68;2.83;;;;;;;;;;5046388;28;20045;-76
2022/06/29 07:29:34;;;;;;;6.70;2.95;;;;;;;;;;5030236;28;20368;-76
2022/06/29 07:32:00;;;;;;;7.78;3.08;;;;;;;;;;5032036;28;20039;-75
2022/06/29 07:34:26;;;;;;;7.38;2.70;;;;;;;;;;5051321;28;20036;-75
2022/06/29 07:36:52;;;;;;;5.78;3.00;;;;;;;;;;5036035;28;20034;-68
2022/06/29 07:39:18;;;;;;;9.25;2.70;;;;;;;;;;5034791;28;20037;-67
2022/06/29 07:41:44;;;;;;;7.75;2.97;;;;;;;;;;5041178;28;20030;-68
2022/06/29 07:44:11;;;;;;;5.03;2.42;;;;;;;;;;5054884;28;20052;-69
2022/06/29 07:46:37;;;;;;;7.82;2.85;;;;;;;;;;5070828;28;20028;-69
2022/06/29 07:49:03;;;;;;;7.18;2.63;;;;;;;;;;5069919;28;20029;-69
2022/06/29 07:51:29;;;;;;;8.20;2.80;;;;;;;;;;5069782;28;20118;-69
2022/06/29 07:53:55;;;;;;;11.82;3.28;;;;;;;;;;5070517;28;20481;-70
2022/06/29 07:56:21;;;;;;;7.82;2.90;;;;;;;;;;5070769;28;20028;-68
2022/06/29 07:58:47;;;;;;;5.65;2.97;;;;;;;;;;5070511;28;20029;-69
2022/06/29 08:01:14;;;;;;;7.80;2.20;;;;;;;;;;5060619;28;20123;-67
2022/06/29 08:03:40;;;;;;;8.23;2.80;;;;;;;;;;5070531;28;20028;-68
2022/06/29 08:06:06;;;;;;;5.20;2.35;;;;;;;;;;5071421;28;20039;-68
2022/06/29 08:08:32;;;;;;;9.57;2.60;;;;;;;;;;5064958;28;20436;-69
2022/06/29 08:10:58;;;;;;;8.48;2.40;;;;;;;;;;5069734;28;20036;-69
2022/06/29 08:13:25;;;;;;;9.55;2.85;;;;;;;;;;5069869;28;20040;-69
2022/06/29 08:15:51;;;;;;;4.13;2.30;;;;;;;;;;5068496;28;20115;-69
2022/06/29 08:18:17;;;;;;;7.63;2.72;;;;;;;;;;5052641;28;20028;-68
2022/06/29 08:20:43;;;;;;;12.25;2.60;;;;;;;;;;5059376;28;20070;-68
2022/06/29 08:23:09;;;;;;;10.30;2.72;;;;;;;;;;5068038;28;20135;-68
2022/06/29 08:25:35;;;;;;;6.25;2.30;;;;;;;;;;5056136;28;20040;-69
2022/06/29 08:28:01;;;;;;;12.40;2.53;;;;;;;;;;5055766;28;20020;-67
2022/06/29 08:30:28;;;;;;;6.28;2.45;;;;;;;;;;5068586;28;20063;-68
2022/06/29 08:32:54;;;;;;;5.90;2.45;;;;;;;;;;5070305;28;20051;-69
2022/06/29 08:35:20;;;;;;;4.40;2.10;;;;;;;;;;5066253;28;20078;-66
2022/06/29 08:37:47;;;;;;;4.25;1.90;;;;;;;;;;5063694;28;20021;-68
2022/06/29 08:40:16;;;;;;;4.75;2.20;;;;;;;;;;5067348;28;20493;-68
2022/06/29 08:42:43;;;;;;;10.23;2.03;;;;;;;;;;5061861;28;20107;-69
2022/06/29 08:45:11;;;;;;;7.75;2.83;;;;;;;;;;5033115;28;20045;-69
2022/06/29 08:47:37;;;;;;;5.78;2.10;;;;;;;;;;5044822;28;20037;-70
2022/06/29 08:50:13;;;;;;;7.40;2.40;;;;;;;;;;5029520;28;20041;-67
2022/06/29 08:52:40;;;;;;;6.15;2.50;;;;;;;;;;5049021;28;20112;-68
2022/06/29 08:55:07;;;;;;;8.25;2.35;;;;;;;;;;5040553;28;20041;-68
2022/06/29 08:57:37;;;;;;;5.82;2.08;;;;;;;;;;5030709;28;20090;-68
2022/06/29 09:00:04;;;;;;;10.13;2.47;;;;;;;;;;5043591;28;20033;-69
2022/06/29 09:02:30;;;;;;;9.20;2.50;;;;;;;;;;5042887;28;20036;-68
2022/06/29 09:04:56;;;;;;;6.82;2.60;;;;;;;;;;5046595;28;20070;-68
2022/06/29 09:07:24;;;;;;;8.75;2.17;;;;;;;;;;5045673;28;20041;-69
2022/06/29 09:10:06;;;;;;;5.57;2.60;;;;;;;;;;5046411;28;20288;-67
2022/06/29 09:12:32;;;;;;;7.18;2.40;;;;;;;;;;5049768;28;20108;-69
2022/06/29 09:14:58;;;;;;;8.77;2.63;;;;;;;;;;5037365;28;20044;-68
2022/06/29 09:17:24;;;;;;;5.82;2.03;;;;;;;;;;5034816;28;20018;-68
2022/06/29 09:19:53;;;;;;;5.13;1.92;;;;;;;;;;5046259;28;20069;-68
2022/06/29 09:22:19;;;;;;;4.18;1.80;;;;;;;;;;5049370;28;20087;-69
2022/06/29 09:24:45;;;;;;;4.60;1.98;;;;;;;;;;5048021;28;20036;-68
2022/06/29 09:27:12;;;;;;;12.45;1.95;;;;;;;;;;5048410;28;20525;-67
2022/06/29 09:29:41;;;;;;;7.72;1.95;;;;;;;;;;5019881;28;20227;-69
2022/06/29 09:32:08;;;;;;;7.05;1.65;;;;;;;;;;5029932;28;20030;-68
2022/06/29 09:34:53;;;;;;;6.00;1.98;;;;;;;;;;5028934;28;20037;-69
2022/06/29 09:37:21;;;;;;;3.95;1.70;;;;;;;;;;5029371;28;20479;-71
2022/06/29 09:39:48;;;;;;;8.70;2.05;;;;;;;;;;5042609;28;20029;-70
2022/06/29 09:42:15;;;;;;;8.13;1.80;;;;;;;;;;5036840;28;20067;-69
2022/06/29 09:44:42;;;;;;;7.10;1.48;;;;;;;;;;5029028;28;20057;-69
2022/06/29 09:47:12;;;;;;;7.00;1.52;;;;;;;;;;5031888;28;20033;-68
2022/06/29 09:49:38;;;;;;;7.05;2.15;;;;;;;;;;5044754;28;20032;-68
2022/06/29 09:52:06;;;;;;;11.32;1.98;;;;;;;;;;5043343;28;20156;-69
2022/06/29 09:54:40;;;;;;;6.85;2.42;;;;;;;;;;5037499;28;20112;-69
2022/06/29 09:57:07;;;;;;;8.82;1.90;;;;;;;;;;5039235;28;20057;-69
2022/06/29 10:02:40;;;;;;;5.93;1.77;;;;;;;;;;5035232;28;20048;-70
2022/06/29 10:05:17;;;;;;;8.55;1.60;;;;;;;;;;5052934;28;20048;-68
2022/06/29 10:07:44;;;;;;;4.55;1.50;;;;;;;;;;5040675;28;20048;-70
2022/06/29 10:10:31;;;;;;;5.93;1.70;;;;;;;;;;5042236;28;20025;-68
2022/06/29 10:16:02;;;;;;;6.68;1.75;;;;;;;;;;5053185;28;20047;-68
2022/06/29 10:18:47;;;;;;;5.10;1.90;;;;;;;;;;5051843;28;20025;-69
2022/06/29 10:21:33;;;;;;;5.95;1.75;;;;;;;;;;5049884;28;20090;-68
2022/06/29 10:24:00;;;;;;;5.63;1.92;;;;;;;;;;5048186;28;20026;-69
2022/06/29 10:26:31;;;;;;;3.90;1.70;;;;;;;;;;5042068;28;20028;-68
2022/06/29 10:29:17;;;;;;;5.35;1.90;;;;;;;;;;5045194;28;20029;-67
2022/06/29 10:31:56;;;;;;;7.20;2.05;;;;;;;;;;5030743;28;20079;-68
2022/06/29 10:34:32;;;;;;;5.83;1.83;;;;;;;;;;5042831;28;20106;-68
2022/06/29 10:37:08;;;;;;;9.35;2.00;;;;;;;;;;5043204;28;20284;-68
2022/06/29 10:39:49;;;;;;;7.60;2.00;;;;;;;;;;5041219;28;20112;-68
2022/06/29 10:45:13;;;;;;;4.25;1.95;;;;;;;;;;5046564;28;20124;-69
2022/06/29 10:47:39;;;;;;;4.70;2.13;;;;;;;;;;5045736;28;20596;-68
2022/06/29 10:50:21;;;;;;;3.58;1.95;;;;;;;;;;5044511;28;20039;-68
2022/06/29 10:52:48;;;;;;;4.72;2.20;;;;;;;;;;5045285;28;20017;-68
2022/06/29 10:55:15;;;;;;;4.82;2.15;;;;;;;;;;5044083;28;20029;-67
2022/06/29 10:57:44;;;;;;;8.38;2.35;;;;;;;;;;5042271;28;20055;-68
2022/06/29 11:00:16;;;;;;;10.60;1.98;;;;;;;;;;5045969;28;20030;-68
2022/06/29 11:02:43;;;;;;;4.82;1.90;;;;;;;;;;5041178;28;20028;-69
2022/06/29 11:05:09;;;;;;;6.88;2.15;;;;;;;;;;5043207;28;20026;-69
2022/06/29 11:13:11;;;;;;;5.07;2.38;;;;;;;;;;5041118;28;20520;-68
2022/06/29 11:15:45;;;;;;;4.35;1.73;;;;;;;;;;5041238;28;20112;-68
2022/06/29 11:18:12;;;;;;;6.80;1.70;;;;;;;;;;5044066;28;20618;-68
2022/06/29 11:20:39;;;;;;;4.00;2.00;;;;;;;;;;5039725;28;20029;-68
2022/06/29 11:23:12;;;;;;;9.77;2.38;;;;;;;;;;5046385;28;20167;-68
2022/06/29 11:25:43;;;;;;;2.97;2.03;;;;;;;;;;5043844;28;20475;-69
2022/06/29 11:28:09;;;;;;;8.52;2.47;;;;;;;;;;5041728;28;20065;-68
2022/06/29 11:30:36;;;;;;;8.05;1.90;;;;;;;;;;5041515;28;20408;-68
2022/06/29 11:33:11;;;;;;;3.67;1.90;;;;;;;;;;5028528;28;20037;-68
2022/06/29 11:35:38;;;;;;;4.70;2.40;;;;;;;;;;5043879;28;20032;-68
2022/06/29 11:38:05;;;;;;;8.93;1.90;;;;;;;;;;5037473;28;20107;-66
2022/06/29 11:40:35;;;;;;;11.25;2.22;;;;;;;;;;5042135;28;20036;-68
2022/06/29 11:43:06;;;;;;;3.60;1.83;;;;;;;;;;5034628;28;20036;-70
2022/06/29 11:45:36;;;;;;;9.88;2.05;;;;;;;;;;5045473;28;20120;-68
2022/06/29 11:48:10;;;;;;;4.78;1.83;;;;;;;;;;5047721;28;20124;-69
2022/06/29 11:50:42;;;;;;;6.07;1.90;;;;;;;;;;5045187;28;20040;-68
2022/06/29 11:53:08;;;;;;;9.10;2.00;;;;;;;;;;5027885;28;20034;-70
2022/06/29 11:55:46;;;;;;;7.47;1.70;;;;;;;;;;5040875;28;20048;-68
2022/06/29 11:58:14;;;;;;;4.28;1.63;;;;;;;;;;5041884;28;20133;-70
2022/06/29 12:00:40;;;;;;;2.55;1.48;;;;;;;;;;5036338;28;20051;-69
2022/06/29 12:03:08;;;;;;;2.63;1.40;;;;;;;;;;5041133;28;20083;-70
2022/06/29 12:05:34;;;;;;;4.00;1.45;;;;;;;;;;5038227;28;20029;-67
2022/06/29 12:08:00;;;;;;;4.75;1.73;;;;;;;;;;5036315;28;20057;-69
2022/06/29 12:10:26;;;;;;;3.97;1.65;;;;;;;;;;5033217;28;20076;-70
2022/06/29 12:12:52;;;;;;;2.88;1.83;;;;;;;;;;5042380;28;20053;-68
2022/06/29 12:15:19;;;;;;;6.32;1.60;;;;;;;;;;5044006;28;20122;-70
2022/06/29 12:17:45;;;;;;;6.72;1.70;;;;;;;;;;5024305;28;20046;-70
2022/06/29 12:20:11;;;;;;;5.50;1.73;;;;;;;;;;5038453;28;20038;-69
2022/06/29 12:22:37;;;;;;;3.95;1.58;;;;;;;;;;5033742;28;20059;-69
2022/06/29 12:25:03;;;;;;;8.38;2.00;;;;;;;;;;5041729;28;20032;-69
2022/06/29 12:27:30;;;;;;;9.90;2.42;;;;;;;;;;5040388;28;20108;-69
2022/06/29 12:29:56;;;;;;;7.03;1.92;;;;;;;;;;5048048;28;20127;-69
2022/06/29 12:32:22;;;;;;;7.20;1.80;;;;;;;;;;5039122;28;20128;-69
2022/06/29 12:34:48;;;;;;;11.70;2.75;;;;;;;;;;5042872;28;20037;-68
2022/06/29 12:37:14;;;;;;;7.00;1.92;;;;;;;;;;5035404;28;20120;-68
2022/06/29 12:39:40;;;;;;;6.00;2.03;;;;;;;;;;5030879;28;20036;-68
2022/06/29 12:42:06;;;;;;;6.10;2.00;;;;;;;;;;5044348;28;20033;-69
2022/06/29 12:44:32;;;;;;;11.98;2.17;;;;;;;;;;5049125;28;20053;-70
2022/06/29 12:46:58;;;;;;;9.90;2.08;;;;;;;;;;5041615;28;20159;-69
2022/06/29 12:49:24;;;;;;;3.35;1.80;;;;;;;;;;5018998;28;20037;-69
2022/06/29 12:51:50;;;;;;;4.57;1.70;;;;;;;;;;5041219;28;20067;-68
2022/06/29 12:54:17;;;;;;;6.80;1.80;;;;;;;;;;5027044;28;20433;-70
2022/06/29 12:56:44;;;;;;;6.68;1.70;;;;;;;;;;5041534;28;20585;-69
2022/06/29 12:59:10;;;;;;;6.35;2.10;;;;;;;;;;5034904;28;20398;-70
2022/06/29 13:01:36;;;;;;;4.38;1.90;;;;;;;;;;5032931;28;20030;-68
2022/06/29 13:04:03;;;;;;;6.15;1.80;;;;;;;;;;5042893;28;20084;-69
2022/06/29 13:06:29;;;;;;;3.30;1.50;;;;;;;;;;5041685;28;20040;-68
2022/06/29 13:08:55;;;;;;;5.55;1.67;;;;;;;;;;5033265;28;20040;-68
2022/06/29 13:11:21;;;;;;;5.00;1.63;;;;;;;;;;5035905;28;20105;-68
2022/06/29 13:13:47;;;;;;;5.32;1.63;;;;;;;;;;5037525;28;20356;-70
2022/06/29 13:16:13;;;;;;;6.50;1.63;;;;;;;;;;5033513;28;20479;-70
2022/06/29 13:18:39;;;;;;;3.47;1.73;;;;;;;;;;5032243;28;20033;-69
2022/06/29 13:21:05;;;;;;;4.30;1.70;;;;;;;;;;5041012;28;20029;-69
2022/06/29 13:23:31;;;;;;;2.63;1.42;;;;;;;;;;5044075;28;20029;-68
2022/06/29 13:25:57;;;;;;;6.35;1.65;;;;;;;;;;5048365;28;20060;-69
2022/06/29 13:28:26;;;;;;;7.07;1.60;;;;;;;;;;5046439;28;20112;-68
2022/06/29 13:30:52;;;;;;;7.72;1.90;;;;;;;;;;5045749;28;20393;-69
2022/06/29 13:33:18;;;;;;;5.00;1.73;;;;;;;;;;5035801;28;20041;-69
2022/06/29 13:35:45;;;;;;;6.15;1.90;;;;;;;;;;5046196;28;20407;-68
2022/06/29 13:38:13;;;;;;;4.75;1.70;;;;;;;;;;5042468;28;20033;-69
2022/06/29 13:40:39;;;;;;;7.65;1.63;;;;;;;;;;5023222;28;20495;-70
2022/06/29 13:43:05;;;;;;;9.10;1.67;;;;;;;;;;5044137;28;20025;-67
2022/06/29 13:45:31;;;;;;;9.00;1.70;;;;;;;;;;5027557;28;20055;-69
2022/06/29 13:47:57;;;;;;;7.60;1.90;;;;;;;;;;5045058;28;20029;-69
2022/06/29 13:50:23;;;;;;;12.82;1.70;;;;;;;;;;5047740;28;20045;-68
2022/06/29 13:52:50;;;;;;;5.00;2.10;;;;;;;;;;5039019;28;20044;-70
2022/06/29 13:55:16;;;;;;;7.22;1.88;;;;;;;;;;5044887;28;20036;-69
2022/06/29 13:57:43;;;;;;;8.27;1.90;;;;;;;;;;5041790;28;20032;-69
2022/06/29 14:00:09;;;;;;;4.90;1.80;;;;;;;;;;5044050;28;20043;-68
2022/06/29 14:02:35;;;;;;;4.95;2.13;;;;;;;;;;5043772;28;20033;-68
2022/06/29 14:05:01;;;;;;;15.13;2.40;;;;;;;;;;5040442;28;20037;-68
2022/06/29 14:07:28;;;;;;;6.25;2.03;;;;;;;;;;5041019;28;20071;-69
2022/06/29 14:09:54;;;;;;;9.30;3.63;;;;;;;;;;5043251;28;20045;-70
2022/06/29 14:12:20;;;;;;;12.10;3.08;;;;;;;;;;5039498;28;20091;-69
2022/06/29 14:14:46;;;;;;;10.27;3.38;;;;;;;;;;5038975;28;20040;-69
2022/06/29 14:17:12;;;;;;;15.50;3.50;;;;;;;;;;5023865;28;20032;-69
2022/06/29 14:19:38;;;;;;;13.30;3.53;;;;;;;;;;5039721;28;20135;-69
2022/06/29 14:22:05;;;;;;;12.55;3.35;;;;;;;;;;5032545;28;20116;-68
2022/06/29 14:24:31;;;;;;;9.73;3.53;;;;;;;;;;5014298;28;20506;-69
2022/06/29 14:26:59;;;;;;;9.75;3.72;;;;;;;;;;5035914;28;20495;-68
2022/06/29 14:29:25;;;;;;;8.82;3.60;;;;;;;;;;5035126;28;21052;-68
2022/06/29 14:31:51;;;;;;;12.27;3.47;;;;;;;;;;5017746;28;20115;-69
2022/06/29 14:34:17;;;;;;;9.73;3.17;;;;;;;;;;5038041;28;20486;-69
2022/06/29 14:36:43;;;;;;;8.63;3.13;;;;;;;;;;5037290;28;20029;-68
2022/06/29 14:39:09;;;;;;;8.38;3.20;;;;;;;;;;5039892;28;20037;-69
2022/06/29 14:41:35;;;;;;;8.88;3.20;;;;;;;;;;5034925;28;20040;-68
2022/06/29 14:44:03;;;;;;;7.72;2.50;;;;;;;;;;5036652;28;20192;-68
2022/06/29 14:46:29;;;;;;;8.85;2.97;;;;;;;;;;5032307;28;20041;-68
2022/06/29 14:48:55;;;;;;;8.70;3.05;;;;;;;;;;5036716;28;20030;-68
2022/06/29 14:51:22;;;;;;;6.95;3.03;;;;;;;;;;5037989;28;20078;-69
2022/06/29 14:53:48;;;;;;;6.65;2.55;;;;;;;;;;5035386;28;20037;-69
2022/06/29 14:56:14;;;;;;;12.35;2.83;;;;;;;;;;5040518;28;20450;-70
2022/06/29 14:58:40;;;;;;;6.78;2.83;;;;;;;;;;5034588;28;20037;-69
2022/06/29 15:01:07;;;;;;;12.77;3.08;;;;;;;;;;5018262;28;20127;-69
2022/06/29 15:03:33;;;;;;;8.23;2.85;;;;;;;;;;5037788;28;20028;-69
2022/06/29 15:05:59;;;;;;;7.85;2.60;;;;;;;;;;5040229;28;20029;-69